sensor_id;sensor_type;location;lat;lon;timestamp;temperature;humidity
13591;DHT22;6866;50.778;7.206;2022-09-25T00:01:57;14.30;99.90
13591;DHT22;6866;50.778;7.206;2022-09-25T00:04:22;14.30;99.90
13591;DHT22;6866;50.778;7.206;2022-09-25T00:06:48;14.30;99.90
13591;DHT22;6866;50.778;7.206;2022-09-25T00:09:13;14.30;99.90
13591;DHT22;6866;50.778;7.206;2022-09-25T00:11:44;14.30;99.90
13591;DHT22;6866;50.778;7.206;2022-09-25T00:14:09;14.30;99.90
13591;DHT22;6866;50.778;7.206;2022-09-25T00:16:35;14.30;99.90
13591;DHT22;6866;50.778;7.206;2022-09-25T00:19:01;14.30;99.90
13591;DHT22;6866;50.778;7.206;2022-09-25T00:21:45;14.30;99.90
13591;DHT22;6866;50.778;7.206;2022-09-25T00:24:15;14.20;99.90
13591;DHT22;6866;50.778;7.206;2022-09-25T00:26:42;14.30;99.90
13591;DHT22;6866;50.778;7.206;2022-09-25T00:29:08;14.30;99.90
13591;DHT22;6866;50.778;7.206;2022-09-25T00:31:37;14.30;99.90
13591;DHT22;6866;50.778;7.206;2022-09-25T00:34:04;14.30;99.90
13591;DHT22;6866;50.778;7.206;2022-09-25T00:36:30;14.20;99.90
13591;DHT22;6866;50.778;7.206;2022-09-25T00:38:56;14.20;99.90
13591;DHT22;6866;50.778;7.206;2022-09-25T00:41:24;14.20;99.90
13591;DHT22;6866;50.778;7.206;2022-09-25T00:43:53;14.20;99.90
13591;DHT22;6866;50.778;7.206;2022-09-25T00:46:30;14.20;99.90
13591;DHT22;6866;50.778;7.206;2022-09-25T00:51:29;14.30;99.90
13591;DHT22;6866;50.778;7.206;2022-09-25T00:53:58;14.30;99.90
13591;DHT22;6866;50.778;7.206;2022-09-25T00:56:28;14.20;99.90
13591;DHT22;6866;50.778;7.206;2022-09-25T00:58:56;14.20;99.90
13591;DHT22;6866;50.778;7.206;2022-09-25T01:03:57;14.20;99.90
13591;DHT22;6866;50.778;7.206;2022-09-25T01:06:24;14.20;99.90
13591;DHT22;6866;50.778;7.206;2022-09-25T01:08:50;14.20;99.90
13591;DHT22;6866;50.778;7.206;2022-09-25T01:11:16;14.20;99.90
13591;DHT22;6866;50.778;7.206;2022-09-25T01:13:42;14.20;99.90
13591;DHT22;6866;50.778;7.206;2022-09-25T01:16:30;14.20;99.90
13591;DHT22;6866;50.778;7.206;2022-09-25T01:19:11;14.20;99.90
13591;DHT22;6866;50.778;7.206;2022-09-25T01:21:50;14.20;99.90
13591;DHT22;6866;50.778;7.206;2022-09-25T01:24:36;14.20;99.90
13591;DHT22;6866;50.778;7.206;2022-09-25T01:27:12;14.20;99.90
13591;DHT22;6866;50.778;7.206;2022-09-25T01:29:56;14.10;99.90
13591;DHT22;6866;50.778;7.206;2022-09-25T01:35:17;14.20;99.90
13591;DHT22;6866;50.778;7.206;2022-09-25T01:40:55;14.20;99.90
13591;DHT22;6866;50.778;7.206;2022-09-25T01:43:29;14.10;99.90
13591;DHT22;6866;50.778;7.206;2022-09-25T01:46:03;14.20;99.90
13591;DHT22;6866;50.778;7.206;2022-09-25T01:48:31;14.10;99.90
13591;DHT22;6866;50.778;7.206;2022-09-25T01:51:03;14.10;99.90
13591;DHT22;6866;50.778;7.206;2022-09-25T01:53:35;14.10;99.90
13591;DHT22;6866;50.778;7.206;2022-09-25T01:56:13;14.00;99.90
13591;DHT22;6866;50.778;7.206;2022-09-25T01:58:47;14.10;99.90
13591;DHT22;6866;50.778;7.206;2022-09-25T02:01:27;14.10;99.90
13591;DHT22;6866;50.778;7.206;2022-09-25T02:03:59;14.10;99.90
13591;DHT22;6866;50.778;7.206;2022-09-25T02:06:28;14.10;99.90
13591;DHT22;6866;50.778;7.206;2022-09-25T02:09:22;14.10;99.90
13591;DHT22;6866;50.778;7.206;2022-09-25T02:11:48;14.10;99.90
13591;DHT22;6866;50.778;7.206;2022-09-25T02:14:26;14.10;99.90
13591;DHT22;6866;50.778;7.206;2022-09-25T02:16:55;14.00;99.90
13591;DHT22;6866;50.778;7.206;2022-09-25T02:19:23;14.00;99.90
13591;DHT22;6866;50.778;7.206;2022-09-25T02:22:22;14.00;99.90
13591;DHT22;6866;50.778;7.206;2022-09-25T02:24:49;14.00;99.90
13591;DHT22;6866;50.778;7.206;2022-09-25T02:27:21;14.00;99.90
13591;DHT22;6866;50.778;7.206;2022-09-25T02:29:47;14.00;99.90
13591;DHT22;6866;50.778;7.206;2022-09-25T02:32:15;14.00;99.90
13591;DHT22;6866;50.778;7.206;2022-09-25T02:34:42;14.00;99.90
13591;DHT22;6866;50.778;7.206;2022-09-25T02:37:11;14.00;99.90
13591;DHT22;6866;50.778;7.206;2022-09-25T02:39:37;14.00;99.90
13591;DHT22;6866;50.778;7.206;2022-09-25T02:44:59;14.00;99.90
13591;DHT22;6866;50.778;7.206;2022-09-25T02:47:34;14.00;99.90
13591;DHT22;6866;50.778;7.206;2022-09-25T02:54:01;14.00;99.90
13591;DHT22;6866;50.778;7.206;2022-09-25T02:56:40;14.00;99.90
13591;DHT22;6866;50.778;7.206;2022-09-25T02:59:17;14.00;99.90
13591;DHT22;6866;50.778;7.206;2022-09-25T03:01:44;14.00;99.90
13591;DHT22;6866;50.778;7.206;2022-09-25T03:04:12;13.90;99.90
13591;DHT22;6866;50.778;7.206;2022-09-25T03:06:39;13.90;99.90
13591;DHT22;6866;50.778;7.206;2022-09-25T03:09:06;13.90;99.90
13591;DHT22;6866;50.778;7.206;2022-09-25T03:11:35;13.90;99.90
13591;DHT22;6866;50.778;7.206;2022-09-25T03:14:05;14.00;99.90
13591;DHT22;6866;50.778;7.206;2022-09-25T03:18:59;13.90;99.90
13591;DHT22;6866;50.778;7.206;2022-09-25T03:21:25;13.90;99.90
13591;DHT22;6866;50.778;7.206;2022-09-25T03:23:50;13.90;99.90
13591;DHT22;6866;50.778;7.206;2022-09-25T03:26:16;13.90;99.90
13591;DHT22;6866;50.778;7.206;2022-09-25T03:28:41;13.90;99.90
13591;DHT22;6866;50.778;7.206;2022-09-25T03:31:09;13.90;99.90
13591;DHT22;6866;50.778;7.206;2022-09-25T03:33:37;13.90;99.90
13591;DHT22;6866;50.778;7.206;2022-09-25T03:36:13;13.90;99.90
13591;DHT22;6866;50.778;7.206;2022-09-25T03:38:40;13.90;99.90
13591;DHT22;6866;50.778;7.206;2022-09-25T03:41:07;13.90;99.90
13591;DHT22;6866;50.778;7.206;2022-09-25T03:43:34;13.90;99.90
13591;DHT22;6866;50.778;7.206;2022-09-25T03:46:01;13.90;99.90
13591;DHT22;6866;50.778;7.206;2022-09-25T03:48:27;13.90;99.90
13591;DHT22;6866;50.778;7.206;2022-09-25T03:50:52;13.90;99.90
13591;DHT22;6866;50.778;7.206;2022-09-25T03:53:20;13.90;99.90
13591;DHT22;6866;50.778;7.206;2022-09-25T03:55:46;13.80;99.90
13591;DHT22;6866;50.778;7.206;2022-09-25T03:58:14;13.80;99.90
13591;DHT22;6866;50.778;7.206;2022-09-25T04:00:40;13.80;99.90
13591;DHT22;6866;50.778;7.206;2022-09-25T04:03:06;13.80;99.90
13591;DHT22;6866;50.778;7.206;2022-09-25T04:05:31;13.80;99.90
13591;DHT22;6866;50.778;7.206;2022-09-25T04:07:57;13.80;99.90
13591;DHT22;6866;50.778;7.206;2022-09-25T04:10:26;13.90;99.90
13591;DHT22;6866;50.778;7.206;2022-09-25T04:12:52;13.90;99.90
13591;DHT22;6866;50.778;7.206;2022-09-25T04:15:19;13.90;99.90
13591;DHT22;6866;50.778;7.206;2022-09-25T04:17:47;13.90;99.90
13591;DHT22;6866;50.778;7.206;2022-09-25T04:20:13;13.90;99.90
13591;DHT22;6866;50.778;7.206;2022-09-25T04:22:38;13.90;99.90
13591;DHT22;6866;50.778;7.206;2022-09-25T04:25:04;13.90;99.90
13591;DHT22;6866;50.778;7.206;2022-09-25T04:27:30;13.90;99.90
13591;DHT22;6866;50.778;7.206;2022-09-25T04:29:56;13.80;99.90
13591;DHT22;6866;50.778;7.206;2022-09-25T04:32:22;13.80;99.90
13591;DHT22;6866;50.778;7.206;2022-09-25T04:35:06;13.80;99.90
13591;DHT22;6866;50.778;7.206;2022-09-25T04:37:32;13.80;99.90
13591;DHT22;6866;50.778;7.206;2022-09-25T04:39:57;13.80;99.90
13591;DHT22;6866;50.778;7.206;2022-09-25T04:42:24;13.80;99.90
13591;DHT22;6866;50.778;7.206;2022-09-25T04:44:51;13.80;99.90
13591;DHT22;6866;50.778;7.206;2022-09-25T04:47:18;13.80;99.90
13591;DHT22;6866;50.778;7.206;2022-09-25T04:49:44;13.80;99.90
13591;DHT22;6866;50.778;7.206;2022-09-25T04:52:12;13.80;99.90
13591;DHT22;6866;50.778;7.206;2022-09-25T04:54:37;13.80;99.90
13591;DHT22;6866;50.778;7.206;2022-09-25T04:57:03;13.80;99.90
13591;DHT22;6866;50.778;7.206;2022-09-25T04:59:30;13.80;99.90
13591;DHT22;6866;50.778;7.206;2022-09-25T05:01:55;13.80;99.90
13591;DHT22;6866;50.778;7.206;2022-09-25T05:04:21;13.80;99.90
13591;DHT22;6866;50.778;7.206;2022-09-25T05:06:47;13.80;99.90
13591;DHT22;6866;50.778;7.206;2022-09-25T05:09:12;13.70;99.90
13591;DHT22;6866;50.778;7.206;2022-09-25T05:11:38;13.70;99.90
13591;DHT22;6866;50.778;7.206;2022-09-25T05:14:03;13.70;99.90
13591;DHT22;6866;50.778;7.206;2022-09-25T05:16:29;13.70;99.90
13591;DHT22;6866;50.778;7.206;2022-09-25T05:18:55;13.70;99.90
13591;DHT22;6866;50.778;7.206;2022-09-25T05:21:21;13.70;99.90
13591;DHT22;6866;50.778;7.206;2022-09-25T05:23:46;13.70;99.90
13591;DHT22;6866;50.778;7.206;2022-09-25T05:26:12;13.70;99.90
13591;DHT22;6866;50.778;7.206;2022-09-25T05:28:38;13.70;99.90
13591;DHT22;6866;50.778;7.206;2022-09-25T05:31:04;13.60;99.90
13591;DHT22;6866;50.778;7.206;2022-09-25T05:33:33;13.60;99.90
13591;DHT22;6866;50.778;7.206;2022-09-25T05:36:06;13.60;99.90
13591;DHT22;6866;50.778;7.206;2022-09-25T05:38:33;13.60;99.90
13591;DHT22;6866;50.778;7.206;2022-09-25T05:41:03;13.60;99.90
13591;DHT22;6866;50.778;7.206;2022-09-25T05:43:29;13.60;99.90
13591;DHT22;6866;50.778;7.206;2022-09-25T05:45:56;13.60;99.90
13591;DHT22;6866;50.778;7.206;2022-09-25T05:48:21;13.60;99.90
13591;DHT22;6866;50.778;7.206;2022-09-25T05:50:54;13.50;99.90
13591;DHT22;6866;50.778;7.206;2022-09-25T05:53:21;13.60;99.90
13591;DHT22;6866;50.778;7.206;2022-09-25T05:55:54;13.60;99.90
13591;DHT22;6866;50.778;7.206;2022-09-25T05:58:21;13.60;99.90
13591;DHT22;6866;50.778;7.206;2022-09-25T06:00:47;13.60;99.90
13591;DHT22;6866;50.778;7.206;2022-09-25T06:03:13;13.60;99.90
13591;DHT22;6866;50.778;7.206;2022-09-25T06:05:39;13.60;99.90
13591;DHT22;6866;50.778;7.206;2022-09-25T06:08:05;13.60;99.90
13591;DHT22;6866;50.778;7.206;2022-09-25T06:10:31;13.60;99.90
13591;DHT22;6866;50.778;7.206;2022-09-25T06:12:57;13.60;99.90
13591;DHT22;6866;50.778;7.206;2022-09-25T06:15:27;13.60;99.90
13591;DHT22;6866;50.778;7.206;2022-09-25T06:17:54;13.60;99.90
13591;DHT22;6866;50.778;7.206;2022-09-25T06:20:20;13.60;99.90
13591;DHT22;6866;50.778;7.206;2022-09-25T06:22:53;13.60;99.90
13591;DHT22;6866;50.778;7.206;2022-09-25T06:25:25;13.60;99.90
13591;DHT22;6866;50.778;7.206;2022-09-25T06:27:55;13.60;99.90
13591;DHT22;6866;50.778;7.206;2022-09-25T06:30:22;13.60;99.90
13591;DHT22;6866;50.778;7.206;2022-09-25T06:32:48;13.60;99.90
13591;DHT22;6866;50.778;7.206;2022-09-25T06:35:20;13.60;99.90
13591;DHT22;6866;50.778;7.206;2022-09-25T06:37:46;13.60;99.90
13591;DHT22;6866;50.778;7.206;2022-09-25T06:40:11;13.70;99.90
13591;DHT22;6866;50.778;7.206;2022-09-25T06:42:37;13.70;99.90
13591;DHT22;6866;50.778;7.206;2022-09-25T06:45:03;13.70;99.90
13591;DHT22;6866;50.778;7.206;2022-09-25T06:47:29;13.70;99.90
13591;DHT22;6866;50.778;7.206;2022-09-25T06:49:54;13.70;99.90
13591;DHT22;6866;50.778;7.206;2022-09-25T06:52:20;13.80;99.90
13591;DHT22;6866;50.778;7.206;2022-09-25T06:54:45;13.80;99.90
13591;DHT22;6866;50.778;7.206;2022-09-25T06:57:11;13.70;99.90
13591;DHT22;6866;50.778;7.206;2022-09-25T06:59:37;13.70;99.90
13591;DHT22;6866;50.778;7.206;2022-09-25T07:02:03;13.70;99.90
13591;DHT22;6866;50.778;7.206;2022-09-25T07:04:48;13.70;99.90
13591;DHT22;6866;50.778;7.206;2022-09-25T07:07:17;13.80;99.90
13591;DHT22;6866;50.778;7.206;2022-09-25T07:09:48;13.80;99.90
13591;DHT22;6866;50.778;7.206;2022-09-25T07:12:16;13.80;99.90
13591;DHT22;6866;50.778;7.206;2022-09-25T07:14:43;13.80;99.90
13591;DHT22;6866;50.778;7.206;2022-09-25T07:17:11;13.80;99.90
13591;DHT22;6866;50.778;7.206;2022-09-25T07:19:37;13.80;99.90
13591;DHT22;6866;50.778;7.206;2022-09-25T07:22:02;13.80;99.90
13591;DHT22;6866;50.778;7.206;2022-09-25T07:24:29;13.90;99.90
13591;DHT22;6866;50.778;7.206;2022-09-25T07:26:55;13.90;99.90
13591;DHT22;6866;50.778;7.206;2022-09-25T07:29:20;13.90;99.90
13591;DHT22;6866;50.778;7.206;2022-09-25T07:31:46;13.90;99.90
13591;DHT22;6866;50.778;7.206;2022-09-25T07:34:11;14.00;99.90
13591;DHT22;6866;50.778;7.206;2022-09-25T07:36:38;14.00;99.60
13591;DHT22;6866;50.778;7.206;2022-09-25T07:39:05;14.10;99.90
13591;DHT22;6866;50.778;7.206;2022-09-25T07:41:31;14.20;99.20
13591;DHT22;6866;50.778;7.206;2022-09-25T07:43:58;14.20;98.70
13591;DHT22;6866;50.778;7.206;2022-09-25T07:46:24;14.30;98.40
13591;DHT22;6866;50.778;7.206;2022-09-25T07:48:50;14.40;98.40
13591;DHT22;6866;50.778;7.206;2022-09-25T07:51:16;14.40;97.60
13591;DHT22;6866;50.778;7.206;2022-09-25T07:53:42;14.50;96.90
13591;DHT22;6866;50.778;7.206;2022-09-25T07:56:11;14.50;96.10
13591;DHT22;6866;50.778;7.206;2022-09-25T07:58:37;14.50;96.60
13591;DHT22;6866;50.778;7.206;2022-09-25T08:01:05;14.50;95.70
13591;DHT22;6866;50.778;7.206;2022-09-25T08:03:31;14.50;96.40
13591;DHT22;6866;50.778;7.206;2022-09-25T08:05:59;14.60;96.60
13591;DHT22;6866;50.778;7.206;2022-09-25T08:08:26;14.60;95.90
13591;DHT22;6866;50.778;7.206;2022-09-25T08:10:52;14.60;95.50
13591;DHT22;6866;50.778;7.206;2022-09-25T08:13:18;14.50;94.40
13591;DHT22;6866;50.778;7.206;2022-09-25T08:15:45;14.50;94.20
13591;DHT22;6866;50.778;7.206;2022-09-25T08:18:11;14.50;94.40
13591;DHT22;6866;50.778;7.206;2022-09-25T08:20:37;14.70;94.60
13591;DHT22;6866;50.778;7.206;2022-09-25T08:23:05;14.80;93.40
13591;DHT22;6866;50.778;7.206;2022-09-25T08:25:30;15.00;92.20
13591;DHT22;6866;50.778;7.206;2022-09-25T08:27:56;15.10;92.50
13591;DHT22;6866;50.778;7.206;2022-09-25T08:30:21;15.30;92.00
13591;DHT22;6866;50.778;7.206;2022-09-25T08:32:47;15.30;91.10
13591;DHT22;6866;50.778;7.206;2022-09-25T08:35:13;15.20;91.00
13591;DHT22;6866;50.778;7.206;2022-09-25T08:37:40;15.10;91.20
13591;DHT22;6866;50.778;7.206;2022-09-25T08:40:15;15.00;91.80
13591;DHT22;6866;50.778;7.206;2022-09-25T08:42:43;15.10;92.50
13591;DHT22;6866;50.778;7.206;2022-09-25T08:45:25;15.20;92.60
13591;DHT22;6866;50.778;7.206;2022-09-25T08:48:21;15.40;91.70
13591;DHT22;6866;50.778;7.206;2022-09-25T08:51:08;15.50;91.70
13591;DHT22;6866;50.778;7.206;2022-09-25T08:53:34;15.50;91.20
13591;DHT22;6866;50.778;7.206;2022-09-25T08:56:02;15.50;91.30
13591;DHT22;6866;50.778;7.206;2022-09-25T08:58:52;15.50;92.50
13591;DHT22;6866;50.778;7.206;2022-09-25T09:01:28;15.50;92.90
13591;DHT22;6866;50.778;7.206;2022-09-25T09:04:01;15.50;91.70
13591;DHT22;6866;50.778;7.206;2022-09-25T09:06:30;15.40;91.20
13591;DHT22;6866;50.778;7.206;2022-09-25T09:09:17;15.30;92.30
13591;DHT22;6866;50.778;7.206;2022-09-25T09:11:51;15.40;92.10
13591;DHT22;6866;50.778;7.206;2022-09-25T09:14:20;15.30;92.70
13591;DHT22;6866;50.778;7.206;2022-09-25T09:17:04;15.50;91.80
13591;DHT22;6866;50.778;7.206;2022-09-25T09:19:30;15.60;91.50
13591;DHT22;6866;50.778;7.206;2022-09-25T09:22:09;15.90;90.10
13591;DHT22;6866;50.778;7.206;2022-09-25T09:33:05;16.50;86.70
13591;DHT22;6866;50.778;7.206;2022-09-25T09:38:25;16.70;80.40
13591;DHT22;6866;50.778;7.206;2022-09-25T09:43:54;17.20;81.20
13591;DHT22;6866;50.778;7.206;2022-09-25T09:46:52;17.00;81.10
13591;DHT22;6866;50.778;7.206;2022-09-25T09:49:35;17.30;77.30
13591;DHT22;6866;50.778;7.206;2022-09-25T09:52:11;17.30;77.00
13591;DHT22;6866;50.778;7.206;2022-09-25T09:54:54;17.20;77.40
13591;DHT22;6866;50.778;7.206;2022-09-25T09:57:27;17.30;75.30
13591;DHT22;6866;50.778;7.206;2022-09-25T10:00:05;17.00;76.80
13591;DHT22;6866;50.778;7.206;2022-09-25T10:02:38;16.90;78.80
13591;DHT22;6866;50.778;7.206;2022-09-25T10:05:22;16.70;77.00
13591;DHT22;6866;50.778;7.206;2022-09-25T10:07:49;17.00;79.10
13591;DHT22;6866;50.778;7.206;2022-09-25T10:10:17;17.10;76.00
13591;DHT22;6866;50.778;7.206;2022-09-25T10:12:46;17.10;78.10
13591;DHT22;6866;50.778;7.206;2022-09-25T10:15:27;17.00;79.10
13591;DHT22;6866;50.778;7.206;2022-09-25T10:17:56;17.00;77.60
13591;DHT22;6866;50.778;7.206;2022-09-25T10:20:24;17.20;75.40
13591;DHT22;6866;50.778;7.206;2022-09-25T10:22:53;17.40;76.40
13591;DHT22;6866;50.778;7.206;2022-09-25T10:25:37;17.30;76.20
13591;DHT22;6866;50.778;7.206;2022-09-25T10:30:46;17.30;75.90
13591;DHT22;6866;50.778;7.206;2022-09-25T10:33:17;17.20;75.60
13591;DHT22;6866;50.778;7.206;2022-09-25T10:35:45;17.30;76.20
13591;DHT22;6866;50.778;7.206;2022-09-25T10:38:37;17.50;77.50
13591;DHT22;6866;50.778;7.206;2022-09-25T10:41:13;17.70;75.40
13591;DHT22;6866;50.778;7.206;2022-09-25T10:43:58;17.50;75.60
13591;DHT22;6866;50.778;7.206;2022-09-25T10:46:29;18.00;70.20
13591;DHT22;6866;50.778;7.206;2022-09-25T10:52:01;18.90;64.30
13591;DHT22;6866;50.778;7.206;2022-09-25T10:54:29;19.30;61.80
13591;DHT22;6866;50.778;7.206;2022-09-25T10:56:55;19.70;61.10
13591;DHT22;6866;50.778;7.206;2022-09-25T10:59:21;19.30;60.90
13591;DHT22;6866;50.778;7.206;2022-09-25T11:01:48;18.40;59.90
13591;DHT22;6866;50.778;7.206;2022-09-25T11:04:24;18.30;61.00
13591;DHT22;6866;50.778;7.206;2022-09-25T11:06:55;17.90;63.40
13591;DHT22;6866;50.778;7.206;2022-09-25T11:09:24;17.80;61.70
13591;DHT22;6866;50.778;7.206;2022-09-25T11:12:05;17.70;64.20
13591;DHT22;6866;50.778;7.206;2022-09-25T11:14:33;17.90;63.50
13591;DHT22;6866;50.778;7.206;2022-09-25T11:17:01;17.80;62.60
13591;DHT22;6866;50.778;7.206;2022-09-25T11:19:35;17.60;60.00
13591;DHT22;6866;50.778;7.206;2022-09-25T11:22:22;17.70;61.90
13591;DHT22;6866;50.778;7.206;2022-09-25T11:25:20;17.60;61.30
13591;DHT22;6866;50.778;7.206;2022-09-25T11:27:55;17.70;56.80
13591;DHT22;6866;50.778;7.206;2022-09-25T11:30:22;17.90;59.60
13591;DHT22;6866;50.778;7.206;2022-09-25T11:33:00;18.20;59.70
13591;DHT22;6866;50.778;7.206;2022-09-25T11:36:07;18.10;60.10
13591;DHT22;6866;50.778;7.206;2022-09-25T11:38:47;18.10;63.10
13591;DHT22;6866;50.778;7.206;2022-09-25T11:41:49;18.10;63.10
13591;DHT22;6866;50.778;7.206;2022-09-25T11:47:11;18.20;58.70
13591;DHT22;6866;50.778;7.206;2022-09-25T11:49:40;18.50;58.80
13591;DHT22;6866;50.778;7.206;2022-09-25T11:52:15;19.10;56.80
13591;DHT22;6866;50.778;7.206;2022-09-25T12:11:47;18.80;57.10
13591;DHT22;6866;50.778;7.206;2022-09-25T12:14:19;18.10;53.70
13591;DHT22;6866;50.778;7.206;2022-09-25T12:19:58;17.80;56.60
13591;DHT22;6866;50.778;7.206;2022-09-25T12:25:51;18.00;58.30
13591;DHT22;6866;50.778;7.206;2022-09-25T12:28:31;18.20;55.00
13591;DHT22;6866;50.778;7.206;2022-09-25T12:36:16;18.20;56.50
13591;DHT22;6866;50.778;7.206;2022-09-25T12:42:07;19.00;51.50
13591;DHT22;6866;50.778;7.206;2022-09-25T12:44:52;19.30;48.90
13591;DHT22;6866;50.778;7.206;2022-09-25T12:47:34;19.00;53.10
13591;DHT22;6866;50.778;7.206;2022-09-25T12:50:15;18.60;51.10
13591;DHT22;6866;50.778;7.206;2022-09-25T12:52:54;18.30;52.70
13591;DHT22;6866;50.778;7.206;2022-09-25T12:55:44;18.20;54.00
13591;DHT22;6866;50.778;7.206;2022-09-25T12:58:24;17.90;56.00
13591;DHT22;6866;50.778;7.206;2022-09-25T13:01:43;17.70;55.40
13591;DHT22;6866;50.778;7.206;2022-09-25T13:03:57;17.90;54.10
13591;DHT22;6866;50.778;7.206;2022-09-25T13:06:51;17.90;54.80
13591;DHT22;6866;50.778;7.206;2022-09-25T13:09:40;17.90;55.70
13591;DHT22;6866;50.778;7.206;2022-09-25T13:12:33;17.80;56.30
13591;DHT22;6866;50.778;7.206;2022-09-25T13:17:34;17.90;56.50
13591;DHT22;6866;50.778;7.206;2022-09-25T13:23:06;17.70;53.70
13591;DHT22;6866;50.778;7.206;2022-09-25T13:25:45;17.50;56.80
13591;DHT22;6866;50.778;7.206;2022-09-25T13:28:19;17.50;54.90
13591;DHT22;6866;50.778;7.206;2022-09-25T13:30:58;17.50;56.70
13591;DHT22;6866;50.778;7.206;2022-09-25T13:33:24;17.50;55.60
13591;DHT22;6866;50.778;7.206;2022-09-25T13:36:05;17.90;53.30
13591;DHT22;6866;50.778;7.206;2022-09-25T13:38:38;18.10;53.10
13591;DHT22;6866;50.778;7.206;2022-09-25T13:41:24;18.30;50.80
13591;DHT22;6866;50.778;7.206;2022-09-25T14:00:20;18.40;48.30
13591;DHT22;6866;50.778;7.206;2022-09-25T14:02:46;18.20;51.30
13591;DHT22;6866;50.778;7.206;2022-09-25T14:05:15;17.90;49.60
13591;DHT22;6866;50.778;7.206;2022-09-25T14:07:42;17.60;50.60
13591;DHT22;6866;50.778;7.206;2022-09-25T14:10:09;17.50;51.10
13591;DHT22;6866;50.778;7.206;2022-09-25T14:12:46;17.80;52.40
13591;DHT22;6866;50.778;7.206;2022-09-25T14:15:22;17.80;51.00
13591;DHT22;6866;50.778;7.206;2022-09-25T14:17:51;18.10;51.00
13591;DHT22;6866;50.778;7.206;2022-09-25T14:20:33;18.30;50.60
13591;DHT22;6866;50.778;7.206;2022-09-25T14:23:23;17.90;52.00
13591;DHT22;6866;50.778;7.206;2022-09-25T14:28:28;17.30;56.20
13591;DHT22;6866;50.778;7.206;2022-09-25T14:31:15;17.30;55.50
13591;DHT22;6866;50.778;7.206;2022-09-25T14:36:41;17.10;56.80
13591;DHT22;6866;50.778;7.206;2022-09-25T14:39:33;17.00;57.10
13591;DHT22;6866;50.778;7.206;2022-09-25T14:47:35;17.50;54.20
13591;DHT22;6866;50.778;7.206;2022-09-25T14:50:02;17.40;56.10
13591;DHT22;6866;50.778;7.206;2022-09-25T14:52:33;17.50;54.70
13591;DHT22;6866;50.778;7.206;2022-09-25T14:54:59;17.70;52.00
13591;DHT22;6866;50.778;7.206;2022-09-25T14:57:29;17.70;52.00
13591;DHT22;6866;50.778;7.206;2022-09-25T15:00:00;17.80;51.10
13591;DHT22;6866;50.778;7.206;2022-09-25T15:02:27;17.70;48.50
13591;DHT22;6866;50.778;7.206;2022-09-25T15:04:58;17.80;49.00
13591;DHT22;6866;50.778;7.206;2022-09-25T15:07:41;17.90;49.30
13591;DHT22;6866;50.778;7.206;2022-09-25T15:10:28;17.90;51.90
13591;DHT22;6866;50.778;7.206;2022-09-25T15:13:14;18.00;50.80
13591;DHT22;6866;50.778;7.206;2022-09-25T15:15:41;18.10;50.10
13591;DHT22;6866;50.778;7.206;2022-09-25T15:18:27;18.20;49.30
13591;DHT22;6866;50.778;7.206;2022-09-25T15:20:54;18.30;49.50
13591;DHT22;6866;50.778;7.206;2022-09-25T15:23:20;18.20;51.20
13591;DHT22;6866;50.778;7.206;2022-09-25T15:25:49;18.20;50.60
13591;DHT22;6866;50.778;7.206;2022-09-25T15:28:18;18.20;50.00
13591;DHT22;6866;50.778;7.206;2022-09-25T15:30:50;18.20;50.60
13591;DHT22;6866;50.778;7.206;2022-09-25T15:33:24;18.10;50.60
13591;DHT22;6866;50.778;7.206;2022-09-25T15:35:58;17.80;51.20
13591;DHT22;6866;50.778;7.206;2022-09-25T15:38:30;17.50;51.20
13591;DHT22;6866;50.778;7.206;2022-09-25T15:40:56;17.50;52.40
13591;DHT22;6866;50.778;7.206;2022-09-25T15:43:23;17.50;52.40
13591;DHT22;6866;50.778;7.206;2022-09-25T15:46:23;17.30;51.80
13591;DHT22;6866;50.778;7.206;2022-09-25T15:48:56;17.40;54.30
13591;DHT22;6866;50.778;7.206;2022-09-25T15:51:24;17.50;53.30
13591;DHT22;6866;50.778;7.206;2022-09-25T15:54:02;17.50;52.90
13591;DHT22;6866;50.778;7.206;2022-09-25T15:56:29;17.50;52.40
13591;DHT22;6866;50.778;7.206;2022-09-25T15:59:05;17.40;51.30
13591;DHT22;6866;50.778;7.206;2022-09-25T16:01:40;17.30;50.90
13591;DHT22;6866;50.778;7.206;2022-09-25T16:04:25;17.20;50.60
13591;DHT22;6866;50.778;7.206;2022-09-25T16:09:51;17.10;50.30
13591;DHT22;6866;50.778;7.206;2022-09-25T16:14:57;16.90;49.20
13591;DHT22;6866;50.778;7.206;2022-09-25T16:17:40;17.00;49.00
13591;DHT22;6866;50.778;7.206;2022-09-25T16:20:29;16.90;48.90
13591;DHT22;6866;50.778;7.206;2022-09-25T16:22:58;16.90;48.90
13591;DHT22;6866;50.778;7.206;2022-09-25T16:25:31;16.80;50.10
13591;DHT22;6866;50.778;7.206;2022-09-25T16:28:16;16.80;49.80
13591;DHT22;6866;50.778;7.206;2022-09-25T16:30:59;16.80;50.70
13591;DHT22;6866;50.778;7.206;2022-09-25T16:33:51;16.70;51.90
13591;DHT22;6866;50.778;7.206;2022-09-25T16:36:16;16.60;52.30
13591;DHT22;6866;50.778;7.206;2022-09-25T16:41:33;16.40;53.70
13591;DHT22;6866;50.778;7.206;2022-09-25T16:46:39;16.40;54.80
13591;DHT22;6866;50.778;7.206;2022-09-25T16:49:05;16.40;54.70
13591;DHT22;6866;50.778;7.206;2022-09-25T16:51:31;16.30;55.10
13591;DHT22;6866;50.778;7.206;2022-09-25T16:53:58;16.30;55.80
13591;DHT22;6866;50.778;7.206;2022-09-25T16:56:26;16.20;56.60
13591;DHT22;6866;50.778;7.206;2022-09-25T16:58:52;16.10;57.30
13591;DHT22;6866;50.778;7.206;2022-09-25T17:01:19;16.10;56.70
13591;DHT22;6866;50.778;7.206;2022-09-25T17:03:45;16.10;57.20
13591;DHT22;6866;50.778;7.206;2022-09-25T17:06:16;16.00;57.00
13591;DHT22;6866;50.778;7.206;2022-09-25T17:08:42;16.10;59.00
13591;DHT22;6866;50.778;7.206;2022-09-25T17:11:09;15.90;57.90
13591;DHT22;6866;50.778;7.206;2022-09-25T17:13:35;15.80;57.80
13591;DHT22;6866;50.778;7.206;2022-09-25T17:16:02;15.80;58.20
13591;DHT22;6866;50.778;7.206;2022-09-25T17:18:27;15.70;58.50
13591;DHT22;6866;50.778;7.206;2022-09-25T17:20:54;15.70;59.20
13591;DHT22;6866;50.778;7.206;2022-09-25T17:23:22;15.60;59.50
13591;DHT22;6866;50.778;7.206;2022-09-25T17:26:00;15.70;59.50
13591;DHT22;6866;50.778;7.206;2022-09-25T17:28:27;15.60;60.80
13591;DHT22;6866;50.778;7.206;2022-09-25T17:30:53;15.60;60.40
13591;DHT22;6866;50.778;7.206;2022-09-25T17:33:20;15.50;61.50
13591;DHT22;6866;50.778;7.206;2022-09-25T17:35:50;15.40;62.10
13591;DHT22;6866;50.778;7.206;2022-09-25T17:38:16;15.40;61.30
13591;DHT22;6866;50.778;7.206;2022-09-25T17:40:43;15.30;61.60
13591;DHT22;6866;50.778;7.206;2022-09-25T17:43:10;15.30;61.70
13591;DHT22;6866;50.778;7.206;2022-09-25T17:45:51;15.40;62.30
13591;DHT22;6866;50.778;7.206;2022-09-25T17:48:18;15.40;62.70
13591;DHT22;6866;50.778;7.206;2022-09-25T17:50:51;15.40;63.00
13591;DHT22;6866;50.778;7.206;2022-09-25T17:53:25;15.30;62.90
13591;DHT22;6866;50.778;7.206;2022-09-25T17:55:52;15.30;62.80
13591;DHT22;6866;50.778;7.206;2022-09-25T17:58:17;15.30;63.80
13591;DHT22;6866;50.778;7.206;2022-09-25T18:00:44;15.30;64.40
13591;DHT22;6866;50.778;7.206;2022-09-25T18:03:14;15.20;64.90
13591;DHT22;6866;50.778;7.206;2022-09-25T18:05:41;15.10;64.60
13591;DHT22;6866;50.778;7.206;2022-09-25T18:08:07;15.10;65.20
13591;DHT22;6866;50.778;7.206;2022-09-25T18:10:33;15.10;65.60